createdAt,value
2022-08-28T00:02:01.579Z,18.20
2022-08-28T00:04:29.490Z,18.20
2022-08-28T00:06:56.905Z,18.20
2022-08-28T00:09:24.818Z,18.20
2022-08-28T00:11:52.065Z,18.10
2022-08-28T00:14:21.100Z,18.00
2022-08-28T00:16:49.462Z,17.90
2022-08-28T00:19:18.529Z,17.90
2022-08-28T00:21:46.887Z,17.80
2022-08-28T00:24:14.114Z,17.80
2022-08-28T00:27:00.100Z,17.80
2022-08-28T00:29:27.541Z,17.80
2022-08-28T00:31:55.301Z,17.80
2022-08-28T00:34:32.889Z,17.80
2022-08-28T00:37:01.513Z,17.70
2022-08-28T00:39:28.934Z,17.70
2022-08-28T00:41:58.031Z,17.70
2022-08-28T00:44:27.864Z,17.70
2022-08-28T00:46:59.273Z,17.70
2022-08-28T00:49:32.567Z,17.70
2022-08-28T00:52:11.772Z,17.70
2022-08-28T00:54:42.166Z,17.80
2022-08-28T00:57:37.904Z,17.80
2022-08-28T01:00:08.847Z,17.80
2022-08-28T01:02:36.222Z,17.80
2022-08-28T01:05:05.761Z,17.70
2022-08-28T01:07:33.244Z,17.80
2022-08-28T01:10:01.007Z,17.80
2022-08-28T01:12:32.055Z,17.80
2022-08-28T01:15:02.731Z,17.80
2022-08-28T01:17:32.934Z,17.80
2022-08-28T01:20:06.331Z,17.80
2022-08-28T01:22:44.320Z,17.70
2022-08-28T01:25:18.280Z,17.70
2022-08-28T01:27:48.116Z,17.70
2022-08-28T01:30:18.376Z,17.70
2022-08-28T01:32:52.912Z,17.60
2022-08-28T01:35:24.064Z,17.60
2022-08-28T01:37:52.581Z,17.60
2022-08-28T01:40:26.813Z,17.60
2022-08-28T01:42:55.009Z,17.50
2022-08-28T01:45:24.018Z,17.40
2022-08-28T01:47:51.457Z,17.40
2022-08-28T01:50:20.897Z,17.30
2022-08-28T01:52:48.064Z,17.30
2022-08-28T01:55:15.327Z,17.30
2022-08-28T01:57:51.111Z,17.30
2022-08-28T02:00:18.791Z,17.30
2022-08-28T02:02:47.407Z,17.30
2022-08-28T02:05:19.345Z,17.30
2022-08-28T02:07:46.954Z,17.30
2022-08-28T02:10:14.895Z,17.30
2022-08-28T02:12:43.089Z,17.30
2022-08-28T02:15:11.210Z,17.30
2022-08-28T02:17:38.837Z,17.20
2022-08-28T02:20:07.433Z,17.20
2022-08-28T02:22:36.213Z,17.20
2022-08-28T02:25:05.358Z,17.30
2022-08-28T02:27:32.608Z,17.20
2022-08-28T02:30:00.014Z,17.30
2022-08-28T02:32:27.239Z,17.20
2022-08-28T02:34:54.982Z,17.20
2022-08-28T02:37:23.391Z,17.20
2022-08-28T02:39:54.553Z,17.20
2022-08-28T02:42:22.673Z,17.30
2022-08-28T02:44:50.003Z,17.30
2022-08-28T02:47:18.180Z,17.40
2022-08-28T02:49:45.782Z,17.50
2022-08-28T02:52:13.419Z,17.50
2022-08-28T02:54:40.648Z,17.50
2022-08-28T02:57:08.808Z,17.50
2022-08-28T02:59:36.704Z,17.50
2022-08-28T03:02:07.102Z,17.50
2022-08-28T03:04:35.856Z,17.60
2022-08-28T03:07:04.301Z,17.60
2022-08-28T03:09:31.465Z,17.70
2022-08-28T03:11:58.653Z,17.70
2022-08-28T03:14:26.322Z,17.70
2022-08-28T03:16:53.611Z,17.70
2022-08-28T03:19:20.847Z,17.90
2022-08-28T03:21:48.002Z,17.70
2022-08-28T03:24:19.590Z,17.60
2022-08-28T03:26:46.883Z,17.60
2022-08-28T03:29:14.154Z,17.60
2022-08-28T03:31:41.394Z,17.70
2022-08-28T03:34:09.472Z,17.80
2022-08-28T03:36:36.623Z,17.80
2022-08-28T03:39:06.058Z,17.90
2022-08-28T03:41:34.565Z,17.90
2022-08-28T03:44:02.067Z,17.90
2022-08-28T03:46:34.799Z,17.90
2022-08-28T03:49:03.715Z,18.00
2022-08-28T03:51:33.134Z,18.00
2022-08-28T03:54:01.499Z,17.90
2022-08-28T03:56:30.125Z,17.90
2022-08-28T03:59:00.814Z,18.00
2022-08-28T04:01:28.309Z,18.00
2022-08-28T04:03:56.217Z,18.10
2022-08-28T04:06:23.629Z,18.10
2022-08-28T04:08:51.048Z,18.20
2022-08-28T04:11:18.531Z,18.20
2022-08-28T04:13:46.102Z,18.20
2022-08-28T04:16:18.944Z,18.30
2022-08-28T04:18:48.674Z,18.30
2022-08-28T04:21:23.514Z,18.30
2022-08-28T04:23:51.156Z,18.20
2022-08-28T04:26:20.846Z,18.20
2022-08-28T04:28:48.910Z,18.20
2022-08-28T04:31:17.262Z,18.20
2022-08-28T04:33:44.607Z,18.20
2022-08-28T04:36:18.570Z,18.20
2022-08-28T04:38:46.086Z,18.20
2022-08-28T04:41:16.232Z,18.20
2022-08-28T04:43:44.199Z,18.20
2022-08-28T04:46:13.949Z,18.20
2022-08-28T04:48:41.890Z,18.20
2022-08-28T04:51:11.729Z,18.20
2022-08-28T04:53:39.132Z,18.20
2022-08-28T04:56:08.885Z,18.10
2022-08-28T04:58:39.234Z,18.10
2022-08-28T05:01:09.867Z,18.10
2022-08-28T05:03:37.447Z,18.10
2022-08-28T05:06:05.330Z,18.10
2022-08-28T05:08:32.971Z,18.00
2022-08-28T05:11:11.529Z,18.00
2022-08-28T05:13:38.823Z,18.00
2022-08-28T05:16:06.601Z,18.10
2022-08-28T05:18:34.487Z,18.10
2022-08-28T05:21:02.130Z,18.20
2022-08-28T05:23:30.411Z,18.30
2022-08-28T05:25:58.144Z,18.40
2022-08-28T05:28:25.432Z,18.40
2022-08-28T05:30:52.906Z,18.50
2022-08-28T05:33:20.150Z,18.60
2022-08-28T05:35:48.283Z,18.60
2022-08-28T05:38:16.559Z,18.70
2022-08-28T05:40:49.307Z,18.80
2022-08-28T05:43:17.540Z,18.90
2022-08-28T05:45:44.898Z,19.00
2022-08-28T05:48:12.327Z,19.10
2022-08-28T05:50:41.459Z,19.10
2022-08-28T05:53:15.658Z,19.20
2022-08-28T05:55:42.795Z,19.20
2022-08-28T05:58:28.706Z,19.30
2022-08-28T06:01:02.745Z,19.30
2022-08-28T06:03:29.883Z,19.30
2022-08-28T06:05:57.092Z,19.40
2022-08-28T06:08:24.214Z,19.40
2022-08-28T06:10:51.366Z,19.50
2022-08-28T06:13:18.553Z,19.50
2022-08-28T06:15:48.355Z,19.70
2022-08-28T06:18:16.759Z,19.80
2022-08-28T06:20:46.513Z,19.80
2022-08-28T06:23:23.789Z,19.90
2022-08-28T06:25:51.777Z,20.00
2022-08-28T06:28:25.187Z,20.10
2022-08-28T06:31:18.091Z,20.10
2022-08-28T06:33:40.644Z,20.00
2022-08-28T06:36:08.028Z,20.10
2022-08-28T06:38:35.262Z,20.10
2022-08-28T06:41:02.524Z,20.20
2022-08-28T06:43:29.961Z,20.30
2022-08-28T06:45:58.266Z,20.30
2022-08-28T06:48:28.137Z,20.50
2022-08-28T06:50:56.921Z,20.60
2022-08-28T06:53:27.214Z,20.80
2022-08-28T06:56:02.364Z,21.00
2022-08-28T06:58:30.253Z,21.10
2022-08-28T07:01:03.194Z,21.20
2022-08-28T07:03:30.876Z,21.30
2022-08-28T07:05:59.260Z,21.50
2022-08-28T07:08:27.933Z,21.80
2022-08-28T07:10:55.576Z,22.00
2022-08-28T07:13:23.521Z,22.20
2022-08-28T07:15:51.227Z,22.60
2022-08-28T07:18:18.880Z,22.80
2022-08-28T07:20:54.444Z,22.80
2022-08-28T07:23:21.622Z,22.80
2022-08-28T07:25:48.793Z,22.80
2022-08-28T07:28:16.866Z,22.90
2022-08-28T07:30:44.406Z,23.10
2022-08-28T07:33:12.080Z,23.30
2022-08-28T07:35:43.844Z,23.20
2022-08-28T07:38:11.760Z,23.10
2022-08-28T07:40:39.064Z,23.10
2022-08-28T07:43:24.739Z,23.20
2022-08-28T07:46:03.042Z,23.30
2022-08-28T07:48:30.254Z,23.50
2022-08-28T07:50:57.469Z,23.80
2022-08-28T07:53:25.098Z,24.10
2022-08-28T07:55:52.300Z,24.50
2022-08-28T07:58:20.272Z,24.70
2022-08-28T08:00:47.917Z,24.90
2022-08-28T08:03:15.423Z,25.10
2022-08-28T08:05:50.878Z,25.40
2022-08-28T08:08:18.078Z,25.80
2022-08-28T08:10:45.207Z,25.90
2022-08-28T08:13:13.103Z,26.00
2022-08-28T08:15:42.601Z,26.00
2022-08-28T08:18:09.875Z,25.90
2022-08-28T08:20:38.545Z,26.00
2022-08-28T08:23:05.814Z,26.10
2022-08-28T08:25:33.571Z,26.10
2022-08-28T08:28:00.895Z,26.00
2022-08-28T08:30:28.048Z,25.90
2022-08-28T08:32:55.709Z,26.10
2022-08-28T08:35:25.049Z,26.10
2022-08-28T08:37:52.387Z,25.80
2022-08-28T08:40:20.555Z,25.60
2022-08-28T08:42:51.171Z,25.70
2022-08-28T08:45:23.659Z,25.90
2022-08-28T08:47:52.254Z,26.00
2022-08-28T08:50:32.055Z,25.90
2022-08-28T08:53:28.753Z,25.60
2022-08-28T08:55:58.159Z,25.30
2022-08-28T08:58:44.762Z,25.60
2022-08-28T09:01:38.997Z,26.30
2022-08-28T09:04:34.271Z,26.00
2022-08-28T09:07:08.170Z,26.00
2022-08-28T09:09:52.318Z,30.60
2022-08-28T09:12:24.698Z,35.10
2022-08-28T09:15:09.610Z,35.20
2022-08-28T09:17:48.782Z,37.10
2022-08-28T09:20:21.426Z,40.80
2022-08-28T09:23:02.076Z,43.60
2022-08-28T09:25:55.630Z,42.80
2022-08-28T09:28:28.032Z,42.90
2022-08-28T09:30:59.558Z,43.70
2022-08-28T09:33:30.935Z,44.30
2022-08-28T09:35:58.174Z,45.90
2022-08-28T09:38:28.182Z,47.20
2022-08-28T09:41:28.528Z,48.70
2022-08-28T09:43:56.801Z,47.10
2022-08-28T09:46:32.074Z,47.50
2022-08-28T09:49:14.164Z,48.40
2022-08-28T09:51:42.023Z,49.00
2022-08-28T09:54:23.577Z,50.10
2022-08-28T09:56:51.121Z,49.70
2022-08-28T09:59:20.876Z,47.40
2022-08-28T10:02:13.105Z,44.10
2022-08-28T10:04:44.282Z,40.70
2022-08-28T10:07:35.903Z,38.10
2022-08-28T10:10:30.443Z,36.40
2022-08-28T10:13:17.058Z,40.60
2022-08-28T10:15:56.594Z,44.90
2022-08-28T10:18:47.034Z,47.50
2022-08-28T10:21:23.358Z,44.90
2022-08-28T10:24:08.671Z,44.60
2022-08-28T10:27:05.324Z,44.00
2022-08-28T10:29:36.521Z,42.70
2022-08-28T10:32:12.241Z,41.20
2022-08-28T10:34:46.664Z,39.60
2022-08-28T10:37:41.650Z,41.70
2022-08-28T10:40:16.216Z,44.80
2022-08-28T10:43:06.956Z,45.20
2022-08-28T10:45:34.920Z,44.10
2022-08-28T10:48:17.334Z,44.50
2022-08-28T10:50:52.808Z,43.00
2022-08-28T10:53:24.990Z,41.80
2022-08-28T10:56:03.584Z,43.50
2022-08-28T10:58:33.315Z,45.40
2022-08-28T11:01:03.225Z,47.20
2022-08-28T11:03:37.507Z,46.30
2022-08-28T11:06:15.810Z,44.30
2022-08-28T11:08:52.740Z,45.80
2022-08-28T11:11:44.124Z,48.40
2022-08-28T11:14:28.341Z,50.80
2022-08-28T11:17:08.366Z,51.20
2022-08-28T11:20:00.651Z,50.60
2022-08-28T11:22:45.460Z,50.80
2022-08-28T11:25:41.664Z,50.10
2022-08-28T11:28:12.201Z,49.50
2022-08-28T11:30:40.659Z,48.00
2022-08-28T11:33:29.425Z,47.40
2022-08-28T11:35:56.821Z,46.50
2022-08-28T11:38:42.021Z,48.10
2022-08-28T11:41:20.852Z,49.90
2022-08-28T11:44:11.016Z,50.20
2022-08-28T11:46:38.136Z,52.00
2022-08-28T11:49:26.744Z,52.80
2022-08-28T11:52:31.543Z,53.00
2022-08-28T11:55:20.535Z,53.40
2022-08-28T12:00:54.122Z,50.60
2022-08-28T12:03:54.674Z,45.60
2022-08-28T12:06:45.232Z,43.20
2022-08-28T12:09:31.911Z,41.60
2022-08-28T12:12:11.499Z,39.90
2022-08-28T12:14:38.635Z,39.70
2022-08-28T12:17:15.131Z,43.00
2022-08-28T12:20:10.275Z,45.50
2022-08-28T12:22:58.966Z,46.00
2022-08-28T12:25:43.378Z,47.90
2022-08-28T12:28:31.597Z,49.30
2022-08-28T12:31:04.692Z,49.90
2022-08-28T12:33:49.621Z,50.40
2022-08-28T12:36:26.415Z,51.30
2022-08-28T12:38:55.646Z,51.90
2022-08-28T12:41:24.507Z,52.70
2022-08-28T12:43:56.917Z,53.00
2022-08-28T12:46:29.287Z,52.70
2022-08-28T12:49:01.151Z,51.90
2022-08-28T12:51:34.464Z,51.50
2022-08-28T12:54:07.209Z,51.70
2022-08-28T12:56:37.833Z,52.00
2022-08-28T12:59:22.517Z,51.50
2022-08-28T13:02:01.309Z,50.60
2022-08-28T13:04:37.263Z,50.90
2022-08-28T13:07:11.538Z,51.20
2022-08-28T13:09:44.569Z,51.20
2022-08-28T13:12:20.873Z,51.10
2022-08-28T13:14:48.207Z,51.40
2022-08-28T13:17:44.169Z,51.50
2022-08-28T13:20:30.000Z,50.30
2022-08-28T13:22:57.981Z,48.80
2022-08-28T13:25:31.629Z,47.10
2022-08-28T13:28:13.758Z,47.10
2022-08-28T13:30:41.311Z,47.80
2022-08-28T13:33:21.533Z,48.20
2022-08-28T13:35:49.329Z,48.30
2022-08-28T13:38:18.932Z,48.30
2022-08-28T13:40:57.881Z,48.40
2022-08-28T13:43:29.272Z,48.50
2022-08-28T13:45:56.517Z,48.00
2022-08-28T13:48:26.101Z,47.60
2022-08-28T13:50:58.588Z,47.40
2022-08-28T13:53:26.046Z,47.20
2022-08-28T13:55:53.304Z,47.10
2022-08-28T13:58:20.542Z,46.70
2022-08-28T14:00:50.028Z,45.90
2022-08-28T14:03:36.223Z,45.30
2022-08-28T14:06:12.168Z,43.80
2022-08-28T14:08:41.225Z,43.20
2022-08-28T14:11:08.806Z,43.50
2022-08-28T14:13:46.935Z,43.80
2022-08-28T14:16:25.879Z,43.90
2022-08-28T14:18:53.805Z,44.10
2022-08-28T14:21:22.132Z,43.90
2022-08-28T14:23:50.087Z,43.80
2022-08-28T14:26:17.245Z,43.70
2022-08-28T14:28:44.861Z,43.20
2022-08-28T14:31:14.598Z,42.70
2022-08-28T14:33:45.288Z,42.40
2022-08-28T14:36:24.417Z,42.40
2022-08-28T14:38:54.194Z,42.40
2022-08-28T14:41:23.177Z,42.20
2022-08-28T14:43:51.020Z,42.00
2022-08-28T14:46:30.219Z,41.80
2022-08-28T14:48:59.817Z,41.50
2022-08-28T14:51:27.443Z,41.10
2022-08-28T14:53:54.646Z,40.80
2022-08-28T14:56:22.423Z,40.40
2022-08-28T14:58:49.660Z,40.10
2022-08-28T15:01:39.624Z,40.00
2022-08-28T15:04:11.011Z,39.60
2022-08-28T15:06:39.109Z,39.10
2022-08-28T15:09:06.337Z,39.40
2022-08-28T15:11:35.331Z,39.40
2022-08-28T15:14:02.594Z,39.30
2022-08-28T15:16:34.030Z,38.90
2022-08-28T15:19:02.361Z,38.80
2022-08-28T15:21:33.997Z,38.50
2022-08-28T15:24:03.645Z,38.20
2022-08-28T15:26:31.496Z,38.00
2022-08-28T15:29:02.137Z,37.90
2022-08-28T15:31:35.068Z,37.90
2022-08-28T15:34:13.489Z,37.80
2022-08-28T15:36:42.290Z,37.70
2022-08-28T15:39:28.838Z,37.50
2022-08-28T15:41:57.051Z,37.10
2022-08-28T15:44:24.495Z,36.70
2022-08-28T15:46:54.954Z,36.60
2022-08-28T15:49:23.886Z,36.50
2022-08-28T15:51:52.487Z,36.40
2022-08-28T15:54:21.021Z,36.30
2022-08-28T15:56:49.640Z,36.00
2022-08-28T15:59:21.101Z,36.00
2022-08-28T16:01:49.211Z,35.80
2022-08-28T16:04:16.698Z,35.70
2022-08-28T16:06:44.127Z,35.10
2022-08-28T16:09:11.615Z,34.80
2022-08-28T16:11:40.969Z,34.60
2022-08-28T16:14:08.328Z,34.30
2022-08-28T16:16:35.715Z,34.10
2022-08-28T16:19:04.319Z,33.10
2022-08-28T16:21:32.794Z,32.50
2022-08-28T16:24:00.402Z,31.50
2022-08-28T16:26:27.810Z,30.50
2022-08-28T16:28:55.040Z,29.90
2022-08-28T16:31:22.733Z,30.00
2022-08-28T16:33:50.480Z,30.30
2022-08-28T16:36:18.566Z,30.40
2022-08-28T16:38:49.452Z,30.60
2022-08-28T16:41:27.737Z,31.00
2022-08-28T16:43:56.264Z,31.10
2022-08-28T16:46:26.459Z,30.60
2022-08-28T16:48:54.735Z,30.20
2022-08-28T16:51:22.773Z,29.70
2022-08-28T16:53:49.969Z,29.60
2022-08-28T16:56:17.891Z,29.60
2022-08-28T16:58:46.090Z,29.80
2022-08-28T17:01:14.320Z,29.80
2022-08-28T17:03:41.952Z,29.40
2022-08-28T17:06:15.759Z,28.60
2022-08-28T17:08:43.815Z,27.90
2022-08-28T17:11:12.092Z,27.30
2022-08-28T17:13:39.883Z,26.60
2022-08-28T17:16:08.133Z,26.00
2022-08-28T17:18:36.824Z,25.60
2022-08-28T17:21:23.599Z,25.20
2022-08-28T17:23:51.253Z,24.80
2022-08-28T17:26:20.538Z,24.50
2022-08-28T17:28:47.758Z,24.30
2022-08-28T17:31:15.591Z,24.00
2022-08-28T17:33:44.366Z,23.80
2022-08-28T17:36:21.460Z,23.60
2022-08-28T17:39:08.038Z,23.50
2022-08-28T17:41:35.854Z,23.30
2022-08-28T17:44:04.920Z,23.10
2022-08-28T17:46:37.514Z,23.00
2022-08-28T17:49:07.262Z,22.90
2022-08-28T17:51:43.244Z,22.80
2022-08-28T17:54:16.671Z,22.80
2022-08-28T17:56:44.771Z,22.60
2022-08-28T17:59:12.417Z,22.60
2022-08-28T18:01:40.908Z,22.70
2022-08-28T18:04:08.857Z,22.70
2022-08-28T18:06:36.709Z,22.60
2022-08-28T18:09:04.914Z,22.50
2022-08-28T18:11:32.080Z,22.30
2022-08-28T18:14:02.254Z,22.10
2022-08-28T18:16:31.935Z,22.00
2022-08-28T18:19:01.141Z,21.90
2022-08-28T18:21:28.794Z,21.90
2022-08-28T18:23:56.540Z,21.90
2022-08-28T18:26:23.962Z,21.90
2022-08-28T18:28:51.649Z,21.80
2022-08-28T18:31:22.237Z,21.80
2022-08-28T18:33:49.948Z,21.80
2022-08-28T18:36:17.565Z,21.70
2022-08-28T18:38:45.174Z,21.70
2022-08-28T18:41:13.054Z,21.70
2022-08-28T18:43:40.539Z,21.60
2022-08-28T18:46:09.334Z,21.50
2022-08-28T18:48:37.669Z,21.60
2022-08-28T18:51:09.191Z,21.60
2022-08-28T18:53:37.363Z,21.50
2022-08-28T18:56:06.506Z,21.50
2022-08-28T18:58:34.658Z,21.40
2022-08-28T19:01:03.674Z,21.30
2022-08-28T19:03:31.138Z,21.20
2022-08-28T19:05:58.356Z,21.10
2022-08-28T19:08:26.250Z,21.00
2022-08-28T19:10:54.971Z,20.90
2022-08-28T19:13:22.223Z,20.70
2022-08-28T19:15:51.596Z,20.60
2022-08-28T19:18:19.669Z,20.50
2022-08-28T19:20:47.281Z,20.30
2022-08-28T19:23:17.631Z,20.20
2022-08-28T19:25:45.554Z,20.10
2022-08-28T19:28:13.791Z,20.00
2022-08-28T19:30:41.316Z,19.90
2022-08-28T19:33:08.575Z,19.90
2022-08-28T19:35:35.801Z,19.80
2022-08-28T19:38:03.075Z,19.80
2022-08-28T19:40:30.333Z,19.70
2022-08-28T19:42:57.547Z,19.60
2022-08-28T19:45:24.719Z,19.60
2022-08-28T19:47:52.311Z,19.50
2022-08-28T19:50:19.826Z,19.50
2022-08-28T19:52:47.090Z,19.40
2022-08-28T19:55:28.866Z,19.30
2022-08-28T19:57:56.643Z,19.20
2022-08-28T20:00:29.230Z,19.20
2022-08-28T20:02:57.602Z,19.20
2022-08-28T20:05:25.524Z,19.10
2022-08-28T20:07:53.230Z,19.00
2022-08-28T20:10:21.346Z,19.00
2022-08-28T20:12:48.949Z,18.90
2022-08-28T20:15:18.380Z,18.90
2022-08-28T20:17:49.752Z,18.80
2022-08-28T20:20:24.580Z,18.80
2022-08-28T20:22:54.342Z,18.80
2022-08-28T20:25:21.845Z,18.70
2022-08-28T20:27:49.021Z,18.70
2022-08-28T20:30:17.050Z,18.60
2022-08-28T20:32:44.234Z,18.60
2022-08-28T20:35:12.677Z,18.50
2022-08-28T20:37:45.351Z,18.50
2022-08-28T20:40:17.035Z,18.40
2022-08-28T20:42:44.663Z,18.30
2022-08-28T20:45:13.283Z,18.30
2022-08-28T20:47:40.550Z,18.20
2022-08-28T20:50:08.113Z,18.20
2022-08-28T20:52:35.353Z,18.10
2022-08-28T20:55:03.140Z,18.10
2022-08-28T20:57:30.311Z,18.10
2022-08-28T20:59:58.231Z,18.00
2022-08-28T21:02:28.832Z,18.00
2022-08-28T21:04:56.277Z,18.00
2022-08-28T21:07:24.751Z,17.90
2022-08-28T21:10:06.712Z,17.90
2022-08-28T21:12:39.904Z,17.90
2022-08-28T21:15:09.561Z,17.90
2022-08-28T21:17:36.915Z,17.80
2022-08-28T21:20:10.425Z,17.80
2022-08-28T21:22:38.323Z,17.80
2022-08-28T21:25:08.155Z,17.80
2022-08-28T21:27:36.279Z,17.80
2022-08-28T21:30:05.210Z,17.80
2022-08-28T21:32:33.969Z,17.80
2022-08-28T21:35:02.510Z,17.80
2022-08-28T21:37:29.727Z,17.80
2022-08-28T21:39:59.492Z,17.80
2022-08-28T21:42:27.795Z,17.70
2022-08-28T21:44:54.950Z,17.70
2022-08-28T21:47:23.084Z,17.70
2022-08-28T21:49:52.131Z,17.70
2022-08-28T21:52:20.206Z,17.70
2022-08-28T21:54:48.289Z,17.70
2022-08-28T21:57:16.098Z,17.70
2022-08-28T21:59:43.442Z,17.70
2022-08-28T22:02:11.814Z,17.70
2022-08-28T22:04:39.040Z,17.70
2022-08-28T22:07:06.593Z,17.70
2022-08-28T22:09:33.763Z,17.60
2022-08-28T22:12:01.280Z,17.50
2022-08-28T22:14:28.487Z,17.60
2022-08-28T22:16:56.008Z,17.50
2022-08-28T22:19:23.232Z,17.50
2022-08-28T22:22:08.905Z,17.50
2022-08-28T22:24:37.467Z,17.40
2022-08-28T22:27:05.718Z,17.40
2022-08-28T22:29:36.378Z,17.30
2022-08-28T22:32:08.002Z,17.30
2022-08-28T22:34:39.926Z,17.30
2022-08-28T22:37:08.209Z,17.20
2022-08-28T22:39:35.417Z,17.20
2022-08-28T22:42:02.865Z,17.20
2022-08-28T22:44:30.243Z,17.20
2022-08-28T22:46:57.439Z,17.10
2022-08-28T22:49:24.706Z,17.20
2022-08-28T22:51:51.874Z,17.10
2022-08-28T22:54:19.186Z,17.10
2022-08-28T22:56:46.349Z,17.00
2022-08-28T22:59:13.660Z,17.00
2022-08-28T23:01:42.406Z,17.00
2022-08-28T23:04:10.920Z,17.00
2022-08-28T23:06:40.162Z,17.00
2022-08-28T23:09:08.571Z,16.90
2022-08-28T23:11:36.967Z,16.90
2022-08-28T23:14:05.467Z,16.90
2022-08-28T23:16:33.418Z,16.90
2022-08-28T23:19:13.439Z,16.80
2022-08-28T23:21:44.242Z,16.80
2022-08-28T23:24:13.531Z,16.80
2022-08-28T23:26:41.439Z,16.80
2022-08-28T23:29:10.170Z,16.70
2022-08-28T23:31:38.154Z,16.80
2022-08-28T23:34:06.288Z,16.80
2022-08-28T23:36:35.318Z,16.70
2022-08-28T23:39:03.724Z,16.70
2022-08-28T23:41:31.954Z,16.80
2022-08-28T23:43:59.397Z,16.80
2022-08-28T23:46:26.765Z,16.80
2022-08-28T23:48:54.110Z,16.80
2022-08-28T23:51:21.948Z,16.80
2022-08-28T23:53:50.108Z,16.80
2022-08-28T23:56:17.713Z,16.80
2022-08-28T23:58:45.498Z,16.90
